createdAt,value
2022-11-20T00:02:12.988Z,99007.53
2022-11-20T00:04:39.806Z,99005.47
2022-11-20T00:07:06.688Z,99008.47
2022-11-20T00:09:33.597Z,99009.25
2022-11-20T00:12:00.547Z,99000.44
2022-11-20T00:14:27.454Z,99002.56
2022-11-20T00:16:54.264Z,99015.50
2022-11-20T00:19:21.222Z,99021.81
2022-11-20T00:21:48.520Z,99012.16
2022-11-20T00:24:15.314Z,99023.06
2022-11-20T00:26:42.152Z,99017.72
2022-11-20T00:29:10.593Z,99014.34
2022-11-20T00:31:37.717Z,99013.78
2022-11-20T00:34:04.628Z,99011.78
2022-11-20T00:36:35.413Z,99034.25
2022-11-20T00:39:02.678Z,99037.97
2022-11-20T00:41:30.820Z,99029.38
2022-11-20T00:43:58.045Z,99039.44
2022-11-20T00:46:28.213Z,99037.72
2022-11-20T00:48:55.574Z,99048.94
2022-11-20T00:51:25.069Z,99053.09
2022-11-20T00:53:52.398Z,99058.56
2022-11-20T00:56:20.771Z,99065.78
2022-11-20T00:58:49.157Z,99060.06
2022-11-20T01:01:26.907Z,99062.72
2022-11-20T01:03:55.780Z,99064.47
2022-11-20T01:06:24.930Z,99062.19
2022-11-20T01:08:53.999Z,99066.88
2022-11-20T01:11:24.347Z,99056.75
2022-11-20T01:13:53.320Z,99056.81
2022-11-20T01:16:24.780Z,99056.81
2022-11-20T01:18:54.881Z,99057.00
2022-11-20T01:21:27.218Z,99054.72
2022-11-20T01:23:54.363Z,99049.31
2022-11-20T01:26:24.614Z,99064.59
2022-11-20T01:28:51.971Z,99054.53
2022-11-20T01:31:31.273Z,99053.94
2022-11-20T01:34:01.203Z,99060.59
2022-11-20T01:36:31.439Z,99054.97
2022-11-20T01:39:04.915Z,99064.06
2022-11-20T01:41:33.476Z,99059.44
2022-11-20T01:44:00.833Z,99055.28
2022-11-20T01:46:28.421Z,99059.97
2022-11-20T01:49:15.685Z,99052.78
2022-11-20T01:51:48.443Z,99057.78
2022-11-20T01:54:29.706Z,99049.56
2022-11-20T01:56:59.110Z,99047.28
2022-11-20T01:59:27.478Z,99055.38
2022-11-20T02:01:54.925Z,99066.81
2022-11-20T02:04:23.776Z,99057.47
2022-11-20T02:06:58.342Z,99062.81
2022-11-20T02:09:25.229Z,99066.50
2022-11-20T02:11:53.004Z,99065.88
2022-11-20T02:14:20.317Z,99072.69
2022-11-20T02:16:48.909Z,99067.06
2022-11-20T02:19:31.167Z,99068.28
2022-11-20T02:22:09.216Z,99061.88
2022-11-20T02:24:36.218Z,99066.63
2022-11-20T02:27:07.768Z,99055.13
2022-11-20T02:29:48.209Z,99065.72
2022-11-20T02:32:33.521Z,99066.28
2022-11-20T02:35:27.597Z,99065.56
2022-11-20T02:37:56.660Z,99058.41
2022-11-20T02:40:24.937Z,99055.66
2022-11-20T02:42:58.808Z,99059.34
2022-11-20T02:45:26.422Z,99059.59
2022-11-20T02:47:54.036Z,99063.03
2022-11-20T02:50:21.681Z,99062.03
2022-11-20T02:52:48.474Z,99058.16
2022-11-20T02:55:15.471Z,99054.75
2022-11-20T02:57:42.607Z,99057.22
2022-11-20T03:00:10.231Z,99045.94
2022-11-20T03:02:37.010Z,99047.50
2022-11-20T03:05:04.225Z,99036.63
2022-11-20T03:07:30.999Z,99029.16
2022-11-20T03:09:57.925Z,99029.22
2022-11-20T03:12:24.705Z,99009.00
2022-11-20T03:14:53.293Z,99015.03
2022-11-20T03:17:20.564Z,99014.72
2022-11-20T03:19:47.565Z,99019.97
2022-11-20T03:22:14.712Z,99016.59
2022-11-20T03:24:41.493Z,99010.41
2022-11-20T03:27:08.303Z,99015.34
2022-11-20T03:29:36.535Z,99009.84
2022-11-20T03:32:03.684Z,99010.22
2022-11-20T03:34:30.529Z,99011.25
2022-11-20T03:36:57.325Z,99008.66
2022-11-20T03:39:24.210Z,99012.50
2022-11-20T03:41:51.144Z,99009.06
2022-11-20T03:44:18.002Z,99004.69
2022-11-20T03:46:44.843Z,98997.78
2022-11-20T03:49:11.641Z,98999.97
2022-11-20T03:51:38.670Z,99001.31
2022-11-20T03:54:09.713Z,99003.34
2022-11-20T03:56:38.739Z,99010.28
2022-11-20T03:59:06.857Z,99001.53
2022-11-20T04:01:36.907Z,99003.91
2022-11-20T04:04:04.777Z,98997.63
2022-11-20T04:06:36.091Z,98990.97
2022-11-20T04:09:03.689Z,98989.56
2022-11-20T04:11:33.667Z,98983.34
2022-11-20T04:14:04.178Z,98988.84
2022-11-20T04:16:36.411Z,98985.53
2022-11-20T04:19:06.367Z,98987.91
2022-11-20T04:21:33.280Z,98980.34
2022-11-20T04:24:00.317Z,98975.25
2022-11-20T04:26:29.715Z,98970.59
2022-11-20T04:28:57.530Z,98974.22
2022-11-20T04:31:30.280Z,98970.09
2022-11-20T04:34:01.878Z,98972.38
2022-11-20T04:36:30.054Z,98964.34
2022-11-20T04:38:59.087Z,98961.53
2022-11-20T04:41:29.860Z,98956.41
2022-11-20T04:43:59.513Z,98951.78
2022-11-20T04:46:28.387Z,98937.03
2022-11-20T04:48:55.216Z,98945.28
2022-11-20T04:51:22.165Z,98941.13
2022-11-20T04:53:49.136Z,98939.97
2022-11-20T04:56:16.071Z,98939.25
2022-11-20T04:58:42.983Z,98947.88
2022-11-20T05:01:18.628Z,98943.22
2022-11-20T05:03:46.390Z,98936.59
2022-11-20T05:06:15.602Z,98941.22
2022-11-20T05:08:42.601Z,98943.28
2022-11-20T05:11:14.933Z,98936.44
2022-11-20T05:13:42.424Z,98936.44
2022-11-20T05:16:12.082Z,98940.88
2022-11-20T05:18:40.813Z,98946.06
2022-11-20T05:21:09.154Z,98952.97
2022-11-20T05:23:36.773Z,98950.63
2022-11-20T05:26:05.035Z,98951.22
2022-11-20T05:28:33.267Z,98948.91
2022-11-20T05:31:11.654Z,98961.13
2022-11-20T05:33:41.233Z,98964.44
2022-11-20T05:36:09.375Z,98959.41
2022-11-20T05:38:36.197Z,98961.75
2022-11-20T05:41:12.384Z,98967.03
2022-11-20T05:43:41.469Z,98967.25
2022-11-20T05:46:10.819Z,98960.34
2022-11-20T05:48:39.351Z,98960.63
2022-11-20T05:51:09.024Z,98964.47
2022-11-20T05:53:37.256Z,98962.97
2022-11-20T05:56:10.037Z,98962.63
2022-11-20T05:58:37.406Z,98959.84
2022-11-20T06:01:14.976Z,98968.94
2022-11-20T06:03:42.966Z,98970.22
2022-11-20T06:06:09.955Z,98966.50
2022-11-20T06:08:36.679Z,98968.03
2022-11-20T06:11:08.179Z,98961.13
2022-11-20T06:13:39.186Z,98970.44
2022-11-20T06:16:08.855Z,98973.88
2022-11-20T06:18:35.687Z,98974.66
2022-11-20T06:21:06.459Z,98977.47
2022-11-20T06:23:34.910Z,98977.19
2022-11-20T06:26:07.333Z,98976.94
2022-11-20T06:28:35.176Z,98985.56
2022-11-20T06:31:03.524Z,98995.91
2022-11-20T06:33:30.824Z,98993.31
2022-11-20T06:36:08.916Z,98996.72
2022-11-20T06:38:45.491Z,99003.97
2022-11-20T06:41:15.169Z,99010.97
2022-11-20T06:43:42.559Z,99012.06
2022-11-20T06:46:12.180Z,99021.63
2022-11-20T06:48:38.964Z,99017.75
2022-11-20T06:51:07.604Z,99014.66
2022-11-20T06:53:35.384Z,99023.31
2022-11-20T06:56:02.129Z,99026.16
2022-11-20T06:58:30.334Z,99021.19
2022-11-20T07:01:01.369Z,99036.56
2022-11-20T07:03:28.339Z,99023.56
2022-11-20T07:05:59.597Z,99035.00
2022-11-20T07:08:26.829Z,99032.88
2022-11-20T07:10:53.782Z,99039.94
2022-11-20T07:13:20.519Z,99035.56
2022-11-20T07:15:47.424Z,99042.31
2022-11-20T07:18:14.146Z,99031.09
2022-11-20T07:20:41.042Z,99046.41
2022-11-20T07:23:07.797Z,99041.28
2022-11-20T07:25:34.626Z,99041.56
2022-11-20T07:28:01.995Z,99038.69
2022-11-20T07:30:29.370Z,99044.34
2022-11-20T07:32:57.744Z,99050.72
2022-11-20T07:35:25.692Z,99046.09
2022-11-20T07:37:52.650Z,99051.00
2022-11-20T07:40:20.110Z,99047.59
2022-11-20T07:42:51.336Z,99057.44
2022-11-20T07:45:18.969Z,99057.84
2022-11-20T07:47:45.819Z,99071.56
2022-11-20T07:50:13.758Z,99058.63
2022-11-20T07:52:40.775Z,99052.03
2022-11-20T07:55:08.778Z,99082.72
2022-11-20T07:57:35.590Z,99053.38
2022-11-20T08:00:04.483Z,99062.94
2022-11-20T08:02:40.893Z,99072.81
2022-11-20T08:05:09.504Z,99064.88
2022-11-20T08:07:41.059Z,99069.53
2022-11-20T08:10:09.707Z,99059.34
2022-11-20T08:12:36.881Z,99064.06
2022-11-20T08:15:09.789Z,99062.47
2022-11-20T08:17:39.786Z,99064.56
2022-11-20T08:20:06.793Z,99064.81
2022-11-20T08:22:33.723Z,99067.63
2022-11-20T08:25:00.590Z,99073.69
2022-11-20T08:27:27.442Z,99068.19
2022-11-20T08:29:54.256Z,99062.53
2022-11-20T08:32:21.073Z,99071.31
2022-11-20T08:34:47.927Z,99079.81
2022-11-20T08:37:14.761Z,99082.25
2022-11-20T08:39:41.524Z,99076.59
2022-11-20T08:42:09.230Z,99082.19
2022-11-20T08:44:36.075Z,99076.28
2022-11-20T08:47:02.919Z,99077.78
2022-11-20T08:49:30.494Z,99073.38
2022-11-20T08:51:58.463Z,99080.44
2022-11-20T08:54:25.269Z,99074.94
2022-11-20T08:56:52.152Z,99072.75
2022-11-20T08:59:31.648Z,99079.50
2022-11-20T09:02:05.819Z,99078.47
2022-11-20T09:04:32.617Z,99068.72
2022-11-20T09:07:01.338Z,99066.22
2022-11-20T09:09:28.795Z,99065.81
2022-11-20T09:11:55.671Z,99065.34
2022-11-20T09:14:22.477Z,99066.91
2022-11-20T09:16:49.309Z,99052.94
2022-11-20T09:22:02.949Z,99062.63
2022-11-20T09:24:29.720Z,99057.69
2022-11-20T09:26:56.569Z,99064.44
2022-11-20T09:29:23.676Z,99068.28
2022-11-20T09:31:50.640Z,99066.72
2022-11-20T09:34:17.907Z,99057.44
2022-11-20T09:36:44.728Z,99058.53
2022-11-20T09:39:11.631Z,99046.38
2022-11-20T09:42:06.986Z,99049.56
2022-11-20T09:44:46.653Z,99050.66
2022-11-20T09:47:31.457Z,99043.41
2022-11-20T09:50:16.822Z,99050.09
2022-11-20T09:52:59.921Z,99051.13
2022-11-20T09:55:27.274Z,99048.06
2022-11-20T09:57:54.972Z,99051.75
2022-11-20T10:00:21.771Z,99040.91
2022-11-20T10:03:14.511Z,99041.38
2022-11-20T10:05:50.986Z,99041.06
2022-11-20T10:08:29.553Z,99030.28
2022-11-20T10:11:08.624Z,99028.28
2022-11-20T10:14:00.980Z,99026.72
2022-11-20T10:16:50.917Z,99021.53
2022-11-20T10:19:20.571Z,99018.38
2022-11-20T10:21:59.903Z,99019.59
2022-11-20T10:25:06.004Z,99021.47
2022-11-20T10:27:44.859Z,99023.81
2022-11-20T10:30:20.470Z,99022.31
2022-11-20T10:32:52.174Z,99014.59
2022-11-20T10:35:33.362Z,99014.91
2022-11-20T10:38:03.106Z,99016.78
2022-11-20T10:40:38.989Z,99023.34
2022-11-20T10:43:20.329Z,99011.19
2022-11-20T10:46:04.136Z,99009.13
2022-11-20T10:48:32.879Z,99011.78
2022-11-20T10:51:11.508Z,99015.16
2022-11-20T10:53:38.268Z,99013.38
2022-11-20T10:56:50.169Z,99004.59
2022-11-20T10:59:47.588Z,99005.09
2022-11-20T11:02:21.429Z,98996.34
2022-11-20T11:04:53.359Z,98998.94
2022-11-20T11:07:36.332Z,98995.59
2022-11-20T11:10:17.681Z,98993.84
2022-11-20T11:12:47.212Z,98992.03
2022-11-20T11:15:26.112Z,98996.75
2022-11-20T11:17:52.888Z,98988.72
2022-11-20T11:20:25.568Z,98987.69
2022-11-20T11:22:55.300Z,98979.41
2022-11-20T11:25:34.020Z,98989.59
2022-11-20T11:28:04.528Z,98980.75
2022-11-20T11:30:42.731Z,98974.56
2022-11-20T11:33:22.803Z,98979.25
2022-11-20T11:35:55.312Z,98973.31
2022-11-20T11:38:43.106Z,98969.19
2022-11-20T11:41:19.975Z,98978.31
2022-11-20T11:43:58.612Z,98975.78
2022-11-20T11:46:36.123Z,98969.81
2022-11-20T11:49:17.662Z,98963.91
2022-11-20T11:52:02.686Z,98959.75
2022-11-20T11:54:32.717Z,98955.13
2022-11-20T11:57:13.243Z,98950.16
2022-11-20T12:00:04.436Z,98944.72
2022-11-20T12:02:34.121Z,98943.97
2022-11-20T12:05:19.069Z,98936.97
2022-11-20T12:08:12.857Z,98930.72
2022-11-20T12:10:58.509Z,98932.59
2022-11-20T12:13:28.246Z,98925.31
2022-11-20T12:15:55.287Z,98934.91
2022-11-20T12:18:23.608Z,98936.97
2022-11-20T12:21:11.878Z,98935.16
2022-11-20T12:24:09.927Z,98941.66
2022-11-20T12:27:10.455Z,98944.78
2022-11-20T12:29:49.188Z,98942.19
2022-11-20T12:32:16.156Z,98941.94
2022-11-20T12:34:54.277Z,98944.28
2022-11-20T12:37:49.052Z,98942.44
2022-11-20T12:40:34.211Z,98948.72
2022-11-20T12:43:24.558Z,98942.47
2022-11-20T12:46:19.432Z,98944.56
2022-11-20T12:49:21.691Z,98937.78
2022-11-20T12:52:07.972Z,98931.06
2022-11-20T12:54:51.601Z,98927.16
2022-11-20T12:57:39.870Z,98921.72
2022-11-20T13:00:16.542Z,98927.44
2022-11-20T13:03:08.134Z,98921.97
2022-11-20T13:06:16.934Z,98919.13
2022-11-20T13:08:57.622Z,98919.13
2022-11-20T13:11:42.445Z,98913.94
2022-11-20T13:14:44.152Z,98915.00
2022-11-20T13:17:38.205Z,98916.56
2022-11-20T13:20:13.581Z,98900.44
2022-11-20T13:22:45.340Z,98908.50
2022-11-20T13:25:23.992Z,98910.59
2022-11-20T13:27:51.882Z,98904.06
2022-11-20T13:30:22.001Z,98902.53
2022-11-20T13:32:53.791Z,98898.38
2022-11-20T13:35:27.589Z,98893.66
2022-11-20T13:38:08.420Z,98898.34
2022-11-20T13:40:39.702Z,98902.00
2022-11-20T13:43:20.835Z,98902.53
2022-11-20T13:46:03.446Z,98905.38
2022-11-20T13:48:40.031Z,98899.91
2022-11-20T13:51:29.025Z,98899.16
2022-11-20T13:54:30.715Z,98890.00
2022-11-20T13:57:03.624Z,98887.94
2022-11-20T13:59:53.620Z,98888.19
2022-11-20T14:02:23.900Z,98884.28
2022-11-20T14:04:54.097Z,98880.63
2022-11-20T14:07:26.075Z,98889.22
2022-11-20T14:09:58.888Z,98877.50
2022-11-20T14:12:35.508Z,98885.03
2022-11-20T14:15:02.902Z,98879.59
2022-11-20T14:17:30.487Z,98878.53
2022-11-20T14:20:07.688Z,98879.31
2022-11-20T14:22:35.157Z,98873.84
2022-11-20T14:25:08.432Z,98871.00
2022-11-20T14:27:40.259Z,98869.44
2022-11-20T14:30:21.839Z,98866.56
2022-11-20T14:32:50.629Z,98871.75
2022-11-20T14:35:42.441Z,98871.50
2022-11-20T14:38:15.232Z,98871.25
2022-11-20T14:40:42.798Z,98872.53
2022-11-20T14:43:22.224Z,98879.56
2022-11-20T14:46:16.707Z,98869.66
2022-11-20T14:48:50.503Z,98871.22
2022-11-20T14:51:38.681Z,98871.22
2022-11-20T14:54:20.946Z,98863.69
2022-11-20T14:57:04.054Z,98867.06
2022-11-20T14:59:36.151Z,98862.91
2022-11-20T15:02:14.654Z,98866.56
2022-11-20T15:04:58.434Z,98858.78
2022-11-20T15:07:34.769Z,98852.53
2022-11-20T15:10:12.723Z,98855.66
2022-11-20T15:12:47.285Z,98849.41
2022-11-20T15:15:22.175Z,98844.19
2022-11-20T15:17:49.918Z,98850.97
2022-11-20T15:20:18.604Z,98843.41
2022-11-20T15:22:46.208Z,98848.41
2022-11-20T15:25:16.166Z,98851.53
2022-11-20T15:27:45.259Z,98849.47
2022-11-20T15:30:19.000Z,98847.38
2022-11-20T15:32:47.296Z,98853.09
2022-11-20T15:35:15.842Z,98844.78
2022-11-20T15:37:44.375Z,98847.91
2022-11-20T15:40:13.627Z,98848.16
2022-11-20T15:42:41.299Z,98849.97
2022-11-20T15:45:08.865Z,98846.59
2022-11-20T15:47:36.560Z,98845.28
2022-11-20T15:50:05.559Z,98839.31
2022-11-20T15:52:41.538Z,98839.56
2022-11-20T15:55:12.979Z,98842.44
2022-11-20T15:57:40.288Z,98857.25
2022-11-20T16:00:09.190Z,98846.59
2022-11-20T16:02:38.229Z,98848.94
2022-11-20T16:05:11.172Z,98852.56
2022-11-20T16:07:39.273Z,98852.03
2022-11-20T16:10:07.211Z,98850.50
2022-11-20T16:12:34.912Z,98844.25
2022-11-20T16:15:01.896Z,98837.75
2022-11-20T16:17:29.766Z,98838.00
2022-11-20T16:19:57.979Z,98835.41
2022-11-20T16:22:25.810Z,98835.41
2022-11-20T16:24:56.793Z,98829.69
2022-11-20T16:27:24.401Z,98832.28
2022-11-20T16:29:52.058Z,98840.09
2022-11-20T16:32:19.983Z,98845.56
2022-11-20T16:34:47.646Z,98843.72
2022-11-20T16:37:15.327Z,98851.22
2022-11-20T16:39:43.103Z,98848.88
2022-11-20T16:42:11.027Z,98853.00
2022-11-20T16:44:38.706Z,98859.53
2022-11-20T16:47:06.453Z,98857.44
2022-11-20T16:49:34.887Z,98846.25
2022-11-20T16:52:02.619Z,98857.94
2022-11-20T16:54:31.755Z,98843.88
2022-11-20T16:57:00.110Z,98850.91
2022-11-20T16:59:27.495Z,98841.03
2022-11-20T17:01:57.303Z,98841.56
2022-11-20T17:04:25.738Z,98858.72
2022-11-20T17:06:53.490Z,98840.75
2022-11-20T17:09:21.242Z,98847.53
2022-11-20T17:11:49.775Z,98850.13
2022-11-20T17:14:17.657Z,98855.78
2022-11-20T17:16:45.302Z,98845.66
2022-11-20T17:19:13.123Z,98843.59
2022-11-20T17:21:43.910Z,98842.06
2022-11-20T17:24:13.464Z,98842.28
2022-11-20T17:26:43.739Z,98830.84
2022-11-20T17:29:19.274Z,98835.78
2022-11-20T17:31:46.876Z,98834.47
2022-11-20T17:34:15.806Z,98840.91
2022-11-20T17:36:45.943Z,98836.50
2022-11-20T17:39:15.523Z,98840.66
2022-11-20T17:41:47.204Z,98847.66
2022-11-20T17:44:15.036Z,98838.00
2022-11-20T17:46:42.603Z,98844.19
2022-11-20T17:49:11.787Z,98843.13
2022-11-20T17:51:40.887Z,98842.56
2022-11-20T17:54:08.585Z,98848.56
2022-11-20T17:56:36.805Z,98859.47
2022-11-20T17:59:09.707Z,98848.59
2022-11-20T18:01:38.943Z,98841.88
2022-11-20T18:04:07.018Z,98845.25
2022-11-20T18:06:34.685Z,98849.16
2022-11-20T18:09:04.630Z,98848.41
2022-11-20T18:11:34.926Z,98837.78
2022-11-20T18:14:04.412Z,98839.06
2022-11-20T18:16:37.488Z,98848.16
2022-11-20T18:19:05.087Z,98836.22
2022-11-20T18:21:33.182Z,98831.56
2022-11-20T18:24:00.768Z,98825.84
2022-11-20T18:26:28.568Z,98830.53
2022-11-20T18:28:56.853Z,98822.75
2022-11-20T18:31:25.074Z,98824.88
2022-11-20T18:33:54.310Z,98814.50
2022-11-20T18:36:30.630Z,98815.03
2022-11-20T18:38:59.988Z,98804.13
2022-11-20T18:41:31.592Z,98798.66
2022-11-20T18:44:00.080Z,98806.16
2022-11-20T18:46:28.803Z,98804.13
2022-11-20T18:49:05.191Z,98811.66
2022-11-20T18:51:41.944Z,98817.63
2022-11-20T18:54:09.987Z,98808.25
2022-11-20T18:56:38.194Z,98794.50
2022-11-20T18:59:08.404Z,98792.91
2022-11-20T19:01:37.739Z,98793.16
2022-11-20T19:04:10.564Z,98799.38
2022-11-20T19:06:42.566Z,98795.25
2022-11-20T19:09:13.647Z,98796.75
2022-11-20T19:11:41.776Z,98798.59
2022-11-20T19:14:11.266Z,98794.44
2022-11-20T19:16:39.259Z,98791.53
2022-11-20T19:19:07.611Z,98800.84
2022-11-20T19:21:35.708Z,98803.41
2022-11-20T19:24:05.308Z,98800.03
2022-11-20T19:26:39.111Z,98797.94
2022-11-20T19:29:09.605Z,98801.78
2022-11-20T19:31:38.823Z,98798.97
2022-11-20T19:34:06.406Z,98800.50
2022-11-20T19:36:44.338Z,98803.38
2022-11-20T19:39:13.253Z,98806.97
2022-11-20T19:41:43.041Z,98805.91
2022-11-20T19:44:16.732Z,98816.31
2022-11-20T19:46:45.437Z,98803.09
2022-11-20T19:49:20.876Z,98797.66
2022-11-20T19:51:50.967Z,98804.88
2022-11-20T19:54:18.856Z,98794.06
2022-11-20T19:56:46.468Z,98787.81
2022-11-20T19:59:15.338Z,98785.44
2022-11-20T20:01:44.151Z,98789.09
2022-11-20T20:04:13.102Z,98798.75
2022-11-20T20:06:42.253Z,98800.84
2022-11-20T20:09:12.573Z,98801.41
2022-11-20T20:11:41.548Z,98805.75
2022-11-20T20:14:17.055Z,98808.84
2022-11-20T20:16:46.546Z,98821.97
2022-11-20T20:19:16.514Z,98810.81
2022-11-20T20:21:44.871Z,98807.19
2022-11-20T20:24:13.613Z,98805.44
2022-11-20T20:26:41.694Z,98806.25
2022-11-20T20:29:09.766Z,98801.59
2022-11-20T20:31:37.961Z,98811.66
2022-11-20T20:34:06.967Z,98811.34
2022-11-20T20:36:34.908Z,98806.63
2022-11-20T20:39:05.859Z,98813.13
2022-11-20T20:41:35.386Z,98805.84
2022-11-20T20:44:02.990Z,98807.19
2022-11-20T20:46:31.064Z,98806.91
2022-11-20T20:49:00.051Z,98803.88
2022-11-20T20:51:28.778Z,98803.66
2022-11-20T20:54:02.336Z,98800.53
2022-11-20T20:56:54.948Z,98801.84
2022-11-20T20:59:23.468Z,98799.75
2022-11-20T21:01:51.538Z,98800.25
2022-11-20T21:04:20.489Z,98797.91
2022-11-20T21:06:49.341Z,98806.47
2022-11-20T21:09:17.268Z,98810.88
2022-11-20T21:11:44.653Z,98814.03
2022-11-20T21:14:12.048Z,98800.53
2022-11-20T21:16:39.311Z,98790.41
2022-11-20T21:19:06.663Z,98780.59
2022-11-20T21:21:33.991Z,98771.75
2022-11-20T21:24:01.594Z,98767.63
2022-11-20T21:26:29.422Z,98774.84
2022-11-20T21:28:57.712Z,98781.34
2022-11-20T21:31:27.133Z,98779.53
2022-11-20T21:33:56.056Z,98786.56
2022-11-20T21:36:26.769Z,98786.31
2022-11-20T21:38:57.116Z,98780.09
2022-11-20T21:41:27.648Z,98785.28
2022-11-20T21:44:29.120Z,98790.47
2022-11-20T21:46:44.806Z,98785.28
2022-11-20T21:49:12.616Z,98790.97
2022-11-20T21:51:39.534Z,98796.16
2022-11-20T21:54:06.320Z,98788.66
2022-11-20T21:56:33.366Z,98786.31
2022-11-20T21:59:00.278Z,98780.59
2022-11-20T22:01:29.559Z,98782.94
2022-11-20T22:04:01.863Z,98777.22
2022-11-20T22:06:34.292Z,98781.41
2022-11-20T22:09:02.475Z,98780.31
2022-11-20T22:11:29.500Z,98774.56
2022-11-20T22:13:56.219Z,98779.22
2022-11-20T22:16:25.930Z,98783.06
2022-11-20T22:18:59.261Z,98779.44
2022-11-20T22:21:34.741Z,98780.94
2022-11-20T22:24:03.502Z,98781.97
2022-11-20T22:26:38.796Z,98792.34
2022-11-20T22:29:12.441Z,98788.66
2022-11-20T22:31:39.273Z,98795.31
2022-11-20T22:34:06.096Z,98790.13
2022-11-20T22:36:32.854Z,98796.84
2022-11-20T22:39:02.355Z,98797.41
2022-11-20T22:41:30.545Z,98790.97
2022-11-20T22:44:02.506Z,98793.81
2022-11-20T22:46:32.169Z,98785.78
2022-11-20T22:49:01.469Z,98796.97
2022-11-20T22:51:31.136Z,98792.81
2022-11-20T22:53:58.063Z,98789.19
2022-11-20T22:56:25.667Z,98782.97
2022-11-20T22:58:53.962Z,98786.81
2022-11-20T23:01:28.303Z,98773.09
2022-11-20T23:03:57.999Z,98784.25
2022-11-20T23:06:25.859Z,98781.66
2022-11-20T23:08:53.558Z,98785.50
2022-11-20T23:11:26.327Z,98770.94
2022-11-20T23:13:56.530Z,98766.59
2022-11-20T23:16:24.319Z,98758.81
2022-11-20T23:19:03.299Z,98751.19
2022-11-20T23:21:30.150Z,98753.78
2022-11-20T23:23:58.640Z,98758.13
2022-11-20T23:26:28.952Z,98754.22
2022-11-20T23:28:57.111Z,98754.75
2022-11-20T23:31:25.019Z,98754.69
2022-11-20T23:33:51.892Z,98748.13
2022-11-20T23:36:18.743Z,98753.34
2022-11-20T23:38:45.521Z,98759.06
2022-11-20T23:41:13.706Z,98764.94
2022-11-20T23:43:41.063Z,98766.84
2022-11-20T23:46:11.442Z,98758.31
2022-11-20T23:48:40.750Z,98753.13
2022-11-20T23:51:07.654Z,98759.59
2022-11-20T23:53:35.225Z,98758.53
2022-11-20T23:56:04.547Z,98759.91
2022-11-20T23:58:35.160Z,98760.63
